createdAt,value
2023-05-01T08:40:20.736Z,144115.41
2023-05-01T08:45:26.328Z,144110.44
2023-05-01T08:50:30.124Z,144221.25
2023-05-01T08:55:34.406Z,144218.75
2023-05-01T09:00:42.013Z,144181.38
2023-05-01T09:05:45.659Z,144228.69
2023-05-01T09:10:50.256Z,144293.44
2023-05-01T09:15:55.145Z,144347.00
2023-05-01T09:20:58.641Z,144242.41
2023-05-01T09:26:05.244Z,144218.75
2023-05-01T09:31:23.674Z,144220.00
2023-05-01T09:36:27.925Z,144178.88
2023-05-01T09:41:33.110Z,144117.91
2023-05-01T09:46:44.037Z,144159.00
2023-05-01T09:51:47.988Z,144111.69
2023-05-01T09:56:55.025Z,144213.78
2023-05-01T10:02:00.556Z,144220.00
2023-05-01T10:07:14.568Z,144258.56
2023-05-01T10:12:33.839Z,144228.69
2023-05-01T10:17:39.948Z,144266.03
2023-05-01T10:22:44.908Z,144345.75
2023-05-01T10:27:52.875Z,144366.94
2023-05-01T10:33:13.136Z,144363.22
2023-05-01T10:38:21.844Z,144408.03
2023-05-01T10:43:28.887Z,144344.50
2023-05-01T10:48:51.738Z,144365.69
2023-05-01T10:54:22.714Z,144380.63
2023-05-01T10:59:50.485Z,144401.81
2023-05-01T11:05:35.682Z,144432.97
2023-05-01T11:10:42.912Z,144404.31
2023-05-01T11:15:55.197Z,144474.13
2023-05-01T11:26:17.612Z,144467.91
2023-05-01T11:31:23.167Z,144455.41
2023-05-01T11:36:27.220Z,144406.81
2023-05-01T11:41:31.453Z,144472.88
2023-05-01T11:46:36.630Z,144535.19
2023-05-01T11:51:40.171Z,144577.53
2023-05-01T11:56:45.435Z,144624.94
2023-05-01T12:01:53.602Z,144632.41
2023-05-01T12:06:58.134Z,144712.22
2023-05-01T12:12:03.803Z,144783.34
2023-05-01T12:17:12.313Z,144772.09
2023-05-01T12:22:16.156Z,144678.56
2023-05-01T12:27:20.039Z,144725.97
2023-05-01T12:32:32.712Z,144678.56
2023-05-01T12:37:36.632Z,144697.28
2023-05-01T12:42:40.999Z,144691.00
2023-05-01T12:47:47.045Z,144727.22
2023-05-01T12:52:50.950Z,144819.50
2023-05-01T12:57:56.958Z,144854.44
2023-05-01T13:03:06.147Z,144924.34
2023-05-01T13:08:09.638Z,144964.28
2023-05-01T13:13:13.182Z,144979.28
2023-05-01T13:18:18.190Z,144966.75
2023-05-01T13:23:21.810Z,144986.75
2023-05-01T13:28:26.062Z,144980.53
2023-05-01T13:33:32.595Z,144969.25
2023-05-01T13:38:41.971Z,144939.31
2023-05-01T13:43:45.457Z,144913.09
2023-05-01T13:48:53.232Z,144931.81
2023-05-01T13:53:57.388Z,145036.69
2023-05-01T13:59:00.955Z,145034.16
2023-05-01T14:04:09.931Z,145047.91
2023-05-01T14:09:13.862Z,145046.66
2023-05-01T14:14:17.994Z,145076.63
2023-05-01T14:19:25.563Z,145109.09
2023-05-01T14:24:29.081Z,145097.88
2023-05-01T14:29:32.470Z,144985.50
2023-05-01T14:34:37.676Z,144958.03
2023-05-01T14:39:41.325Z,144935.56
2023-05-01T14:44:44.711Z,144905.59
2023-05-01T14:49:52.333Z,144899.38
2023-05-01T14:54:56.534Z,144898.13
2023-05-01T15:00:00.488Z,144831.97
2023-05-01T15:05:05.620Z,144799.53
2023-05-01T15:10:09.746Z,144747.13
2023-05-01T15:15:13.196Z,144737.16
2023-05-01T15:20:18.098Z,144687.28
2023-05-01T15:25:21.632Z,144667.34
2023-05-01T15:30:25.289Z,144661.06
2023-05-01T15:35:30.568Z,144673.56
2023-05-01T15:40:34.923Z,144749.63
2023-05-01T15:45:43.032Z,144759.63
2023-05-01T15:50:49.293Z,144772.09
2023-05-01T15:55:53.364Z,144787.09
2023-05-01T16:00:59.532Z,144793.31
2023-05-01T16:06:09.941Z,144807.00
2023-05-01T16:11:20.779Z,144764.63
2023-05-01T16:16:27.962Z,144784.59
2023-05-01T16:21:36.790Z,144819.50
2023-05-01T16:27:06.279Z,144803.28
2023-05-01T16:32:11.484Z,144793.31
2023-05-01T16:37:17.464Z,144777.06
2023-05-01T16:42:25.252Z,144818.25
2023-05-01T16:47:28.785Z,144792.06
2023-05-01T16:52:33.649Z,144755.91
2023-05-01T16:57:36.966Z,144730.94
2023-05-01T17:02:44.841Z,144732.19
2023-05-01T17:07:54.331Z,144703.50
2023-05-01T17:12:57.600Z,144673.56
2023-05-01T17:18:00.982Z,144636.13
2023-05-01T17:23:05.809Z,144582.56
2023-05-01T17:28:09.097Z,144525.22
2023-05-01T17:33:12.380Z,144499.03
2023-05-01T17:38:19.342Z,144442.97
2023-05-01T17:43:26.656Z,144406.81
2023-05-01T17:48:29.917Z,144347.00
2023-05-01T17:53:34.743Z,144317.13
2023-05-01T17:58:38.945Z,144283.50
2023-05-01T18:03:42.348Z,144246.16
2023-05-01T18:08:47.818Z,144198.81
2023-05-01T18:13:51.140Z,144171.44
2023-05-01T18:18:54.408Z,144146.53
2023-05-01T18:23:59.147Z,144104.22
2023-05-01T18:29:02.840Z,144059.41
2023-05-01T18:34:07.134Z,144009.63
2023-05-01T18:39:12.255Z,143969.81
2023-05-01T18:44:15.736Z,143930.03
2023-05-01T18:49:23.302Z,143900.13
2023-05-01T18:54:28.207Z,143881.50
2023-05-01T18:59:32.142Z,143850.41
2023-05-01T19:04:49.445Z,143823.06
2023-05-01T19:10:01.653Z,143772.06
2023-05-01T19:15:13.416Z,143753.41
2023-05-01T19:20:16.954Z,143734.81
2023-05-01T19:25:21.728Z,143723.59
2023-05-01T19:30:25.031Z,143717.38
2023-05-01T19:35:28.292Z,143701.19
2023-05-01T19:40:33.583Z,143695.00
2023-05-01T19:45:36.940Z,143671.38
2023-05-01T19:50:40.256Z,143645.28
2023-05-01T19:55:47.640Z,143631.63
2023-05-01T20:00:51.440Z,143629.16
2023-05-01T20:05:54.860Z,143481.34
2023-05-01T20:10:59.552Z,143435.38
2023-05-01T20:16:02.960Z,143401.84
2023-05-01T20:21:07.807Z,143370.81
2023-05-01T20:26:15.197Z,143343.50
2023-05-01T20:31:18.747Z,143374.53
2023-05-01T20:36:23.570Z,143389.41
2023-05-01T20:41:30.895Z,143400.59
2023-05-01T20:46:34.340Z,143347.22
2023-05-01T20:51:38.394Z,143290.13
2023-05-01T20:56:45.883Z,143262.81
2023-05-01T21:01:49.792Z,143272.72
2023-05-01T21:06:53.554Z,143256.63
2023-05-01T21:11:58.506Z,143246.66
2023-05-01T21:17:01.928Z,143230.56
2023-05-01T21:22:05.601Z,143214.41
2023-05-01T21:27:10.329Z,143200.78
2023-05-01T21:32:17.773Z,143182.16
2023-05-01T21:37:21.220Z,143172.25
2023-05-01T21:42:30.506Z,143174.72
